Terminal Aerodrome Forecast
Issued by NWS Grand Forks, ND

Home | Current Version | Previous Version | Graphics & Text | Print | Product List | Glossary On
Versions: 1 2 3 4 5 6 7 8 9 10 11 12 13
295
FTUS43 KFGF 161134
TAFGFK
TAF
KGFK 161134Z 1612/1712 20006KT P6SM SKC
     FM170100 VRB03KT 5SM BR FEW150
     FM170500 28004KT 6SM BR FEW200=

USA.gov is the U.S. government's official web portal to all federal, state and local government web resources and services.